sensor_id;sensor_type;location;lat;lon;timestamp;temperature;humidity
73547;SHT30;61807;48.384;-4.386;2022-08-07T00:00:53;15.88;66.15
73547;SHT30;61807;48.384;-4.386;2022-08-07T00:03:18;15.84;66.25
73547;SHT30;61807;48.384;-4.386;2022-08-07T00:05:44;15.84;66.31
73547;SHT30;61807;48.384;-4.386;2022-08-07T00:08:10;15.81;66.49
73547;SHT30;61807;48.384;-4.386;2022-08-07T00:10:36;15.83;66.67
73547;SHT30;61807;48.384;-4.386;2022-08-07T00:13:03;15.83;66.83
73547;SHT30;61807;48.384;-4.386;2022-08-07T00:15:30;15.85;66.83
73547;SHT30;61807;48.384;-4.386;2022-08-07T00:17:56;15.85;66.92
73547;SHT30;61807;48.384;-4.386;2022-08-07T00:20:23;15.88;66.88
73547;SHT30;61807;48.384;-4.386;2022-08-07T00:22:48;15.88;66.90
73547;SHT30;61807;48.384;-4.386;2022-08-07T00:25:14;15.88;67.01
73547;SHT30;61807;48.384;-4.386;2022-08-07T00:27:39;15.85;66.95
73547;SHT30;61807;48.384;-4.386;2022-08-07T00:30:05;15.83;67.01
73547;SHT30;61807;48.384;-4.386;2022-08-07T00:32:30;15.84;67.06
73547;SHT30;61807;48.384;-4.386;2022-08-07T00:34:56;15.83;67.10
73547;SHT30;61807;48.384;-4.386;2022-08-07T00:37:21;15.78;67.08
73547;SHT30;61807;48.384;-4.386;2022-08-07T00:39:49;15.77;67.27
73547;SHT30;61807;48.384;-4.386;2022-08-07T00:42:14;15.77;67.37
73547;SHT30;61807;48.384;-4.386;2022-08-07T00:44:40;15.73;67.37
73547;SHT30;61807;48.384;-4.386;2022-08-07T00:47:06;15.70;67.54
73547;SHT30;61807;48.384;-4.386;2022-08-07T00:49:32;15.67;67.60
73547;SHT30;61807;48.384;-4.386;2022-08-07T00:51:58;15.67;67.66
73547;SHT30;61807;48.384;-4.386;2022-08-07T00:54:23;15.65;67.77
73547;SHT30;61807;48.384;-4.386;2022-08-07T00:56:50;15.64;67.81
73547;SHT30;61807;48.384;-4.386;2022-08-07T00:59:16;15.61;68.01
73547;SHT30;61807;48.384;-4.386;2022-08-07T01:01:42;15.61;68.13
73547;SHT30;61807;48.384;-4.386;2022-08-07T01:04:07;15.58;68.32
73547;SHT30;61807;48.384;-4.386;2022-08-07T01:06:33;15.56;68.34
73547;SHT30;61807;48.384;-4.386;2022-08-07T01:09:00;15.58;68.30
73547;SHT30;61807;48.384;-4.386;2022-08-07T01:11:26;15.57;68.29
73547;SHT30;61807;48.384;-4.386;2022-08-07T01:13:52;15.56;68.37
73547;SHT30;61807;48.384;-4.386;2022-08-07T01:16:18;15.58;68.42
73547;SHT30;61807;48.384;-4.386;2022-08-07T01:18:44;15.56;68.46
73547;SHT30;61807;48.384;-4.386;2022-08-07T01:21:14;15.57;68.55
73547;SHT30;61807;48.384;-4.386;2022-08-07T01:23:42;15.56;68.53
73547;SHT30;61807;48.384;-4.386;2022-08-07T01:26:09;15.57;68.66
73547;SHT30;61807;48.384;-4.386;2022-08-07T01:28:36;15.54;68.73
73547;SHT30;61807;48.384;-4.386;2022-08-07T01:31:02;15.51;68.76
73547;SHT30;61807;48.384;-4.386;2022-08-07T01:33:28;15.50;68.85
73547;SHT30;61807;48.384;-4.386;2022-08-07T01:35:55;15.49;68.90
73547;SHT30;61807;48.384;-4.386;2022-08-07T01:38:21;15.47;68.98
73547;SHT30;61807;48.384;-4.386;2022-08-07T01:40:48;15.46;69.11
73547;SHT30;61807;48.384;-4.386;2022-08-07T01:43:15;15.46;69.08
73547;SHT30;61807;48.384;-4.386;2022-08-07T01:45:42;15.44;69.18
73547;SHT30;61807;48.384;-4.386;2022-08-07T01:48:07;15.43;69.12
73547;SHT30;61807;48.384;-4.386;2022-08-07T01:50:36;15.43;69.30
73547;SHT30;61807;48.384;-4.386;2022-08-07T01:53:03;15.43;69.14
73547;SHT30;61807;48.384;-4.386;2022-08-07T01:55:45;15.43;69.35
73547;SHT30;61807;48.384;-4.386;2022-08-07T01:58:13;15.43;69.32
73547;SHT30;61807;48.384;-4.386;2022-08-07T02:00:43;15.42;69.41
73547;SHT30;61807;48.384;-4.386;2022-08-07T02:03:12;15.40;69.51
73547;SHT30;61807;48.384;-4.386;2022-08-07T02:05:43;15.40;69.50
73547;SHT30;61807;48.384;-4.386;2022-08-07T02:08:11;15.42;69.42
73547;SHT30;61807;48.384;-4.386;2022-08-07T02:10:38;15.40;69.44
73547;SHT30;61807;48.384;-4.386;2022-08-07T02:13:05;15.39;69.46
73547;SHT30;61807;48.384;-4.386;2022-08-07T02:15:31;15.39;69.48
73547;SHT30;61807;48.384;-4.386;2022-08-07T02:17:58;15.37;69.54
73547;SHT30;61807;48.384;-4.386;2022-08-07T02:20:26;15.37;69.68
73547;SHT30;61807;48.384;-4.386;2022-08-07T02:23:00;15.36;69.81
73547;SHT30;61807;48.384;-4.386;2022-08-07T02:25:28;15.40;69.91
73547;SHT30;61807;48.384;-4.386;2022-08-07T02:27:55;15.43;69.88
73547;SHT30;61807;48.384;-4.386;2022-08-07T02:30:23;15.44;69.74
73547;SHT30;61807;48.384;-4.386;2022-08-07T02:32:51;15.46;69.63
73547;SHT30;61807;48.384;-4.386;2022-08-07T02:35:17;15.42;69.62
73547;SHT30;61807;48.384;-4.386;2022-08-07T02:37:45;15.43;69.66
73547;SHT30;61807;48.384;-4.386;2022-08-07T02:40:12;15.42;69.62
73547;SHT30;61807;48.384;-4.386;2022-08-07T02:42:39;15.39;69.59
73547;SHT30;61807;48.384;-4.386;2022-08-07T02:45:07;15.36;69.64
73547;SHT30;61807;48.384;-4.386;2022-08-07T02:47:34;15.36;69.80
73547;SHT30;61807;48.384;-4.386;2022-08-07T02:50:00;15.36;69.70
73547;SHT30;61807;48.384;-4.386;2022-08-07T02:52:33;15.35;69.86
73547;SHT30;61807;48.384;-4.386;2022-08-07T02:55:06;15.36;69.83
73547;SHT30;61807;48.384;-4.386;2022-08-07T02:57:35;15.36;70.04
73547;SHT30;61807;48.384;-4.386;2022-08-07T03:00:03;15.36;70.01
73547;SHT30;61807;48.384;-4.386;2022-08-07T03:02:29;15.36;69.86
73547;SHT30;61807;48.384;-4.386;2022-08-07T03:04:57;15.37;69.82
73547;SHT30;61807;48.384;-4.386;2022-08-07T03:07:25;15.37;70.00
73547;SHT30;61807;48.384;-4.386;2022-08-07T03:09:51;15.36;70.15
73547;SHT30;61807;48.384;-4.386;2022-08-07T03:12:17;15.37;70.05
73547;SHT30;61807;48.384;-4.386;2022-08-07T03:14:43;15.39;69.97
73547;SHT30;61807;48.384;-4.386;2022-08-07T03:17:09;15.36;69.94
73547;SHT30;61807;48.384;-4.386;2022-08-07T03:19:35;15.36;69.93
73547;SHT30;61807;48.384;-4.386;2022-08-07T03:22:03;15.36;70.15
73547;SHT30;61807;48.384;-4.386;2022-08-07T03:24:29;15.39;70.15
73547;SHT30;61807;48.384;-4.386;2022-08-07T03:26:59;15.37;70.20
73547;SHT30;61807;48.384;-4.386;2022-08-07T03:29:40;15.36;70.31
73547;SHT30;61807;48.384;-4.386;2022-08-07T03:32:09;15.37;70.33
73547;SHT30;61807;48.384;-4.386;2022-08-07T03:34:37;15.40;70.37
73547;SHT30;61807;48.384;-4.386;2022-08-07T03:37:04;15.40;70.34
73547;SHT30;61807;48.384;-4.386;2022-08-07T03:39:34;15.42;70.46
73547;SHT30;61807;48.384;-4.386;2022-08-07T03:42:03;15.40;70.29
73547;SHT30;61807;48.384;-4.386;2022-08-07T03:44:29;15.40;70.20
73547;SHT30;61807;48.384;-4.386;2022-08-07T03:46:56;15.33;70.40
73547;SHT30;61807;48.384;-4.386;2022-08-07T03:49:22;15.33;70.47
73547;SHT30;61807;48.384;-4.386;2022-08-07T03:51:48;15.32;70.39
73547;SHT30;61807;48.384;-4.386;2022-08-07T03:54:14;15.35;70.45
73547;SHT30;61807;48.384;-4.386;2022-08-07T03:56:40;15.35;70.54
73547;SHT30;61807;48.384;-4.386;2022-08-07T03:59:11;15.33;70.74
73547;SHT30;61807;48.384;-4.386;2022-08-07T04:01:41;15.36;70.59
73547;SHT30;61807;48.384;-4.386;2022-08-07T04:04:06;15.33;70.91
73547;SHT30;61807;48.384;-4.386;2022-08-07T04:06:32;15.33;70.82
73547;SHT30;61807;48.384;-4.386;2022-08-07T04:08:58;15.32;70.64
73547;SHT30;61807;48.384;-4.386;2022-08-07T04:11:25;15.30;70.74
73547;SHT30;61807;48.384;-4.386;2022-08-07T04:13:51;15.27;70.56
73547;SHT30;61807;48.384;-4.386;2022-08-07T04:16:18;15.29;70.69
73547;SHT30;61807;48.384;-4.386;2022-08-07T04:18:45;15.29;70.75
73547;SHT30;61807;48.384;-4.386;2022-08-07T04:21:10;15.33;70.93
73547;SHT30;61807;48.384;-4.386;2022-08-07T04:23:36;15.33;70.94
73547;SHT30;61807;48.384;-4.386;2022-08-07T04:26:04;15.35;70.99
73547;SHT30;61807;48.384;-4.386;2022-08-07T04:28:30;15.32;70.94
73547;SHT30;61807;48.384;-4.386;2022-08-07T04:30:55;15.33;70.92
73547;SHT30;61807;48.384;-4.386;2022-08-07T04:33:23;15.36;70.79
73547;SHT30;61807;48.384;-4.386;2022-08-07T04:35:49;15.36;70.67
73547;SHT30;61807;48.384;-4.386;2022-08-07T04:38:15;15.33;70.73
73547;SHT30;61807;48.384;-4.386;2022-08-07T04:40:43;15.27;70.57
73547;SHT30;61807;48.384;-4.386;2022-08-07T04:43:09;15.26;70.59
73547;SHT30;61807;48.384;-4.386;2022-08-07T04:54:19;15.13;70.77
73547;SHT30;61807;48.384;-4.386;2022-08-07T04:56:53;15.15;70.59
73547;SHT30;61807;48.384;-4.386;2022-08-07T04:59:31;15.10;70.73
73547;SHT30;61807;48.384;-4.386;2022-08-07T05:02:12;15.09;70.76
73547;SHT30;61807;48.384;-4.386;2022-08-07T05:07:17;15.07;70.87
73547;SHT30;61807;48.384;-4.386;2022-08-07T05:13:06;15.06;70.72
73547;SHT30;61807;48.384;-4.386;2022-08-07T05:15:36;15.07;70.82
73547;SHT30;61807;48.384;-4.386;2022-08-07T05:18:10;15.07;70.86
73547;SHT30;61807;48.384;-4.386;2022-08-07T05:20:40;15.09;70.81
73547;SHT30;61807;48.384;-4.386;2022-08-07T05:23:18;15.10;70.90
73547;SHT30;61807;48.384;-4.386;2022-08-07T05:25:45;15.10;70.94
73547;SHT30;61807;48.384;-4.386;2022-08-07T05:28:12;15.09;70.88
73547;SHT30;61807;48.384;-4.386;2022-08-07T05:30:39;15.12;70.90
73547;SHT30;61807;48.384;-4.386;2022-08-07T05:33:06;15.10;70.95
73547;SHT30;61807;48.384;-4.386;2022-08-07T05:35:34;15.10;70.99
73547;SHT30;61807;48.384;-4.386;2022-08-07T05:38:01;15.12;71.05
73547;SHT30;61807;48.384;-4.386;2022-08-07T05:40:28;15.13;71.12
73547;SHT30;61807;48.384;-4.386;2022-08-07T05:42:55;15.13;71.16
73547;SHT30;61807;48.384;-4.386;2022-08-07T05:45:21;15.13;71.45
73547;SHT30;61807;48.384;-4.386;2022-08-07T05:47:48;15.13;71.26
73547;SHT30;61807;48.384;-4.386;2022-08-07T05:50:13;15.12;71.33
73547;SHT30;61807;48.384;-4.386;2022-08-07T05:52:39;15.15;71.44
73547;SHT30;61807;48.384;-4.386;2022-08-07T05:55:06;15.16;71.32
73547;SHT30;61807;48.384;-4.386;2022-08-07T05:57:34;15.22;71.31
73547;SHT30;61807;48.384;-4.386;2022-08-07T06:00:01;15.20;71.29
73547;SHT30;61807;48.384;-4.386;2022-08-07T06:02:29;15.25;71.46
73547;SHT30;61807;48.384;-4.386;2022-08-07T06:04:58;15.25;71.37
73547;SHT30;61807;48.384;-4.386;2022-08-07T06:07:26;15.23;71.54
73547;SHT30;61807;48.384;-4.386;2022-08-07T06:09:52;15.27;71.54
73547;SHT30;61807;48.384;-4.386;2022-08-07T06:12:17;15.30;71.51
73547;SHT30;61807;48.384;-4.386;2022-08-07T06:14:43;15.30;71.64
73547;SHT30;61807;48.384;-4.386;2022-08-07T06:17:08;15.33;71.59
73547;SHT30;61807;48.384;-4.386;2022-08-07T06:19:37;15.39;71.66
73547;SHT30;61807;48.384;-4.386;2022-08-07T06:22:03;15.40;71.69
73547;SHT30;61807;48.384;-4.386;2022-08-07T06:24:29;15.49;71.61
73547;SHT30;61807;48.384;-4.386;2022-08-07T06:26:54;15.56;71.54
73547;SHT30;61807;48.384;-4.386;2022-08-07T06:29:25;15.61;71.60
73547;SHT30;61807;48.384;-4.386;2022-08-07T06:31:51;15.64;71.51
73547;SHT30;61807;48.384;-4.386;2022-08-07T06:34:16;15.70;71.49
73547;SHT30;61807;48.384;-4.386;2022-08-07T06:36:42;15.74;71.47
73547;SHT30;61807;48.384;-4.386;2022-08-07T06:39:07;15.78;71.50
73547;SHT30;61807;48.384;-4.386;2022-08-07T06:41:44;15.83;71.67
73547;SHT30;61807;48.384;-4.386;2022-08-07T06:44:12;15.85;71.52
73547;SHT30;61807;48.384;-4.386;2022-08-07T06:46:39;15.90;71.58
73547;SHT30;61807;48.384;-4.386;2022-08-07T06:49:05;15.91;71.73
73547;SHT30;61807;48.384;-4.386;2022-08-07T06:51:33;15.94;71.71
73547;SHT30;61807;48.384;-4.386;2022-08-07T06:54:02;15.98;71.76
73547;SHT30;61807;48.384;-4.386;2022-08-07T06:56:29;16.01;71.69
73547;SHT30;61807;48.384;-4.386;2022-08-07T06:59:14;16.06;71.69
73547;SHT30;61807;48.384;-4.386;2022-08-07T07:01:41;16.11;71.68
73547;SHT30;61807;48.384;-4.386;2022-08-07T07:04:08;16.15;71.74
73547;SHT30;61807;48.384;-4.386;2022-08-07T07:06:34;16.22;71.62
73547;SHT30;61807;48.384;-4.386;2022-08-07T07:09:35;16.26;71.86
73547;SHT30;61807;48.384;-4.386;2022-08-07T07:17:07;16.45;71.65
73547;SHT30;61807;48.384;-4.386;2022-08-07T07:19:39;16.52;71.58
73547;SHT30;61807;48.384;-4.386;2022-08-07T07:22:07;16.59;71.47
73547;SHT30;61807;48.384;-4.386;2022-08-07T07:24:33;16.67;71.48
73547;SHT30;61807;48.384;-4.386;2022-08-07T07:26:59;16.73;71.38
73547;SHT30;61807;48.384;-4.386;2022-08-07T07:29:29;16.79;71.35
73547;SHT30;61807;48.384;-4.386;2022-08-07T07:32:00;16.83;71.23
73547;SHT30;61807;48.384;-4.386;2022-08-07T07:34:28;16.88;71.11
73547;SHT30;61807;48.384;-4.386;2022-08-07T07:37:00;16.95;71.12
73547;SHT30;61807;48.384;-4.386;2022-08-07T07:39:26;17.03;70.95
73547;SHT30;61807;48.384;-4.386;2022-08-07T07:41:54;17.07;70.89
73547;SHT30;61807;48.384;-4.386;2022-08-07T07:44:21;17.14;70.76
73547;SHT30;61807;48.384;-4.386;2022-08-07T07:46:48;17.21;70.65
73547;SHT30;61807;48.384;-4.386;2022-08-07T07:49:16;17.31;70.68
73547;SHT30;61807;48.384;-4.386;2022-08-07T07:51:43;17.41;70.48
73547;SHT30;61807;48.384;-4.386;2022-08-07T07:54:11;17.52;70.24
73547;SHT30;61807;48.384;-4.386;2022-08-07T07:56:39;17.61;70.09
73547;SHT30;61807;48.384;-4.386;2022-08-07T07:59:06;17.69;69.88
73547;SHT30;61807;48.384;-4.386;2022-08-07T08:01:37;17.76;69.74
73547;SHT30;61807;48.384;-4.386;2022-08-07T08:04:05;17.83;69.90
73547;SHT30;61807;48.384;-4.386;2022-08-07T08:06:33;17.92;69.66
73547;SHT30;61807;48.384;-4.386;2022-08-07T08:09:02;18.00;69.59
73547;SHT30;61807;48.384;-4.386;2022-08-07T08:11:29;18.09;69.48
73547;SHT30;61807;48.384;-4.386;2022-08-07T08:13:55;18.16;69.37
73547;SHT30;61807;48.384;-4.386;2022-08-07T08:16:25;18.23;69.12
73547;SHT30;61807;48.384;-4.386;2022-08-07T08:18:53;18.30;69.06
73547;SHT30;61807;48.384;-4.386;2022-08-07T08:21:19;18.36;69.22
73547;SHT30;61807;48.384;-4.386;2022-08-07T08:24:05;18.41;68.88
73547;SHT30;61807;48.384;-4.386;2022-08-07T08:26:52;18.50;68.90
73547;SHT30;61807;48.384;-4.386;2022-08-07T08:29:42;18.59;68.70
73547;SHT30;61807;48.384;-4.386;2022-08-07T08:32:11;18.67;68.61
73547;SHT30;61807;48.384;-4.386;2022-08-07T08:34:41;18.78;68.55
73547;SHT30;61807;48.384;-4.386;2022-08-07T08:37:08;18.89;68.38
73547;SHT30;61807;48.384;-4.386;2022-08-07T08:39:35;19.12;68.04
73547;SHT30;61807;48.384;-4.386;2022-08-07T08:42:21;19.47;67.55
73547;SHT30;61807;48.384;-4.386;2022-08-07T08:50:19;20.63;65.28
73547;SHT30;61807;48.384;-4.386;2022-08-07T08:55:43;21.41;63.02
73547;SHT30;61807;48.384;-4.386;2022-08-07T09:00:53;22.10;61.34
73547;SHT30;61807;48.384;-4.386;2022-08-07T09:03:37;22.45;61.15
73547;SHT30;61807;48.384;-4.386;2022-08-07T09:06:15;22.79;60.83
73547;SHT30;61807;48.384;-4.386;2022-08-07T09:11:44;23.46;59.30
73547;SHT30;61807;48.384;-4.386;2022-08-07T09:14:15;23.79;58.18
73547;SHT30;61807;48.384;-4.386;2022-08-07T09:16:56;24.12;57.87
73547;SHT30;61807;48.384;-4.386;2022-08-07T09:25:48;25.20;55.34
73547;SHT30;61807;48.384;-4.386;2022-08-07T09:28:28;25.45;53.93
73547;SHT30;61807;48.384;-4.386;2022-08-07T09:31:02;25.71;53.38
73547;SHT30;61807;48.384;-4.386;2022-08-07T09:36:11;26.23;52.06
73547;SHT30;61807;48.384;-4.386;2022-08-07T09:38:58;26.47;51.68
73547;SHT30;61807;48.384;-4.386;2022-08-07T09:41:35;26.78;50.35
73547;SHT30;61807;48.384;-4.386;2022-08-07T09:46:57;27.10;49.87
73547;SHT30;61807;48.384;-4.386;2022-08-07T09:54:34;27.25;47.64
73547;SHT30;61807;48.384;-4.386;2022-08-07T10:08:32;27.54;46.62
73547;SHT30;61807;48.384;-4.386;2022-08-07T10:11:13;27.68;45.61
73547;SHT30;61807;48.384;-4.386;2022-08-07T10:30:17;27.45;42.86
73547;SHT30;61807;48.384;-4.386;2022-08-07T10:40:47;26.30;44.93
73547;SHT30;61807;48.384;-4.386;2022-08-07T10:43:23;26.03;45.10
73547;SHT30;61807;48.384;-4.386;2022-08-07T10:45:57;25.85;45.79
73547;SHT30;61807;48.384;-4.386;2022-08-07T10:48:38;25.66;45.29
73547;SHT30;61807;48.384;-4.386;2022-08-07T10:51:20;25.44;44.95
73547;SHT30;61807;48.384;-4.386;2022-08-07T10:53:56;25.32;46.14
73547;SHT30;61807;48.384;-4.386;2022-08-07T10:57:10;25.24;45.88
73547;SHT30;61807;48.384;-4.386;2022-08-07T11:07:42;25.10;47.11
73547;SHT30;61807;48.384;-4.386;2022-08-07T11:13:08;25.06;46.83
73547;SHT30;61807;48.384;-4.386;2022-08-07T11:15:38;25.01;46.74
73547;SHT30;61807;48.384;-4.386;2022-08-07T11:20:47;25.00;47.32
73547;SHT30;61807;48.384;-4.386;2022-08-07T11:23:22;24.98;45.56
73547;SHT30;61807;48.384;-4.386;2022-08-07T11:26:02;24.94;46.44
73547;SHT30;61807;48.384;-4.386;2022-08-07T11:28:39;25.00;45.68
73547;SHT30;61807;48.384;-4.386;2022-08-07T11:33:53;25.06;46.01
73547;SHT30;61807;48.384;-4.386;2022-08-07T11:42:01;25.51;44.45
73547;SHT30;61807;48.384;-4.386;2022-08-07T11:44:52;25.80;44.33
73547;SHT30;61807;48.384;-4.386;2022-08-07T11:58:32;28.29;41.63
73547;SHT30;61807;48.384;-4.386;2022-08-07T12:06:48;29.38;40.38
73547;SHT30;61807;48.384;-4.386;2022-08-07T12:09:23;29.69;40.24
73547;SHT30;61807;48.384;-4.386;2022-08-07T12:11:56;30.02;39.75
73547;SHT30;61807;48.384;-4.386;2022-08-07T12:14:26;30.29;39.89
73547;SHT30;61807;48.384;-4.386;2022-08-07T12:16:57;30.58;39.22
73547;SHT30;61807;48.384;-4.386;2022-08-07T12:19:50;30.81;39.30
73547;SHT30;61807;48.384;-4.386;2022-08-07T12:22:56;31.07;38.24
73547;SHT30;61807;48.384;-4.386;2022-08-07T12:26:00;31.28;38.57
73547;SHT30;61807;48.384;-4.386;2022-08-07T12:31:08;31.72;37.99
73547;SHT30;61807;48.384;-4.386;2022-08-07T12:33:36;31.83;37.96
73547;SHT30;61807;48.384;-4.386;2022-08-07T12:36:03;31.94;37.98
73547;SHT30;61807;48.384;-4.386;2022-08-07T12:38:29;32.10;35.30
73547;SHT30;61807;48.384;-4.386;2022-08-07T12:40:58;32.13;36.32
73547;SHT30;61807;48.384;-4.386;2022-08-07T12:43:29;32.18;36.81
73547;SHT30;61807;48.384;-4.386;2022-08-07T12:46:18;32.34;35.97
73547;SHT30;61807;48.384;-4.386;2022-08-07T12:51:57;32.61;36.11
73547;SHT30;61807;48.384;-4.386;2022-08-07T12:54:34;32.83;36.05
73547;SHT30;61807;48.384;-4.386;2022-08-07T12:57:03;32.99;35.31
73547;SHT30;61807;48.384;-4.386;2022-08-07T12:59:31;33.03;34.98
73547;SHT30;61807;48.384;-4.386;2022-08-07T13:04:44;33.31;34.58
73547;SHT30;61807;48.384;-4.386;2022-08-07T13:12:50;33.75;33.33
73547;SHT30;61807;48.384;-4.386;2022-08-07T13:15:40;33.75;33.00
73547;SHT30;61807;48.384;-4.386;2022-08-07T13:18:29;33.82;33.36
73547;SHT30;61807;48.384;-4.386;2022-08-07T13:21:01;33.81;32.74
73547;SHT30;61807;48.384;-4.386;2022-08-07T13:23:38;33.88;32.65
73547;SHT30;61807;48.384;-4.386;2022-08-07T13:26:14;34.02;33.06
73547;SHT30;61807;48.384;-4.386;2022-08-07T13:29:02;34.09;32.58
73547;SHT30;61807;48.384;-4.386;2022-08-07T13:31:37;34.19;32.09
73547;SHT30;61807;48.384;-4.386;2022-08-07T13:34:22;34.31;30.74
73547;SHT30;61807;48.384;-4.386;2022-08-07T13:36:54;34.31;31.59
73547;SHT30;61807;48.384;-4.386;2022-08-07T13:39:30;34.36;30.96
73547;SHT30;61807;48.384;-4.386;2022-08-07T13:41:57;34.32;30.33
73547;SHT30;61807;48.384;-4.386;2022-08-07T13:44:31;34.32;31.10
73547;SHT30;61807;48.384;-4.386;2022-08-07T13:47:00;34.35;29.97
73547;SHT30;61807;48.384;-4.386;2022-08-07T13:49:34;34.31;29.96
73547;SHT30;61807;48.384;-4.386;2022-08-07T13:52:07;34.20;29.57
73547;SHT30;61807;48.384;-4.386;2022-08-07T13:54:34;34.05;30.27
73547;SHT30;61807;48.384;-4.386;2022-08-07T13:57:02;34.02;30.22
73547;SHT30;61807;48.384;-4.386;2022-08-07T13:59:33;33.97;29.77
73547;SHT30;61807;48.384;-4.386;2022-08-07T14:02:03;33.92;29.54
73547;SHT30;61807;48.384;-4.386;2022-08-07T14:04:37;33.91;30.14
73547;SHT30;61807;48.384;-4.386;2022-08-07T14:07:10;33.91;30.13
73547;SHT30;61807;48.384;-4.386;2022-08-07T14:09:38;33.88;29.75
73547;SHT30;61807;48.384;-4.386;2022-08-07T14:12:19;33.82;29.95
73547;SHT30;61807;48.384;-4.386;2022-08-07T14:14:53;33.70;28.87
73547;SHT30;61807;48.384;-4.386;2022-08-07T14:17:23;33.54;29.97
73547;SHT30;61807;48.384;-4.386;2022-08-07T14:20:19;33.47;29.97
73547;SHT30;61807;48.384;-4.386;2022-08-07T14:22:50;33.34;29.80
73547;SHT30;61807;48.384;-4.386;2022-08-07T14:25:24;33.33;30.10
73547;SHT30;61807;48.384;-4.386;2022-08-07T14:27:52;33.31;29.94
73547;SHT30;61807;48.384;-4.386;2022-08-07T14:30:20;33.19;29.66
73547;SHT30;61807;48.384;-4.386;2022-08-07T14:33:01;33.09;29.88
73547;SHT30;61807;48.384;-4.386;2022-08-07T14:35:30;33.02;30.14
73547;SHT30;61807;48.384;-4.386;2022-08-07T14:37:57;32.80;29.46
73547;SHT30;61807;48.384;-4.386;2022-08-07T14:40:24;32.63;30.03
73547;SHT30;61807;48.384;-4.386;2022-08-07T14:43:02;32.51;28.41
73547;SHT30;61807;48.384;-4.386;2022-08-07T14:45:39;32.21;28.74
73547;SHT30;61807;48.384;-4.386;2022-08-07T14:48:07;31.98;30.18
73547;SHT30;61807;48.384;-4.386;2022-08-07T14:50:40;31.88;30.14
73547;SHT30;61807;48.384;-4.386;2022-08-07T14:53:06;31.80;30.56
73547;SHT30;61807;48.384;-4.386;2022-08-07T14:55:33;31.67;30.38
73547;SHT30;61807;48.384;-4.386;2022-08-07T14:58:01;31.53;30.42
73547;SHT30;61807;48.384;-4.386;2022-08-07T15:00:30;31.42;31.05
73547;SHT30;61807;48.384;-4.386;2022-08-07T15:03:03;31.32;30.86
73547;SHT30;61807;48.384;-4.386;2022-08-07T15:05:30;31.21;30.75
73547;SHT30;61807;48.384;-4.386;2022-08-07T15:07:57;31.08;30.99
73547;SHT30;61807;48.384;-4.386;2022-08-07T15:10:25;30.99;31.22
73547;SHT30;61807;48.384;-4.386;2022-08-07T15:12:53;30.89;30.78
73547;SHT30;61807;48.384;-4.386;2022-08-07T15:15:25;30.79;31.15
73547;SHT30;61807;48.384;-4.386;2022-08-07T15:18:04;30.71;31.58
73547;SHT30;61807;48.384;-4.386;2022-08-07T15:20:34;30.68;31.10
73547;SHT30;61807;48.384;-4.386;2022-08-07T15:23:02;30.57;31.37
73547;SHT30;61807;48.384;-4.386;2022-08-07T15:25:32;30.51;31.56
73547;SHT30;61807;48.384;-4.386;2022-08-07T15:28:01;30.39;31.37
73547;SHT30;61807;48.384;-4.386;2022-08-07T15:30:28;30.14;31.27
73547;SHT30;61807;48.384;-4.386;2022-08-07T15:32:56;30.00;30.79
73547;SHT30;61807;48.384;-4.386;2022-08-07T15:35:24;29.73;30.35
73547;SHT30;61807;48.384;-4.386;2022-08-07T15:37:55;29.61;30.56
73547;SHT30;61807;48.384;-4.386;2022-08-07T15:40:24;29.52;30.76
73547;SHT30;61807;48.384;-4.386;2022-08-07T15:43:20;29.41;30.40
73547;SHT30;61807;48.384;-4.386;2022-08-07T15:45:47;29.38;30.76
73547;SHT30;61807;48.384;-4.386;2022-08-07T15:48:21;29.37;30.59
73547;SHT30;61807;48.384;-4.386;2022-08-07T15:50:49;29.15;30.11
73547;SHT30;61807;48.384;-4.386;2022-08-07T15:53:26;28.96;30.79
73547;SHT30;61807;48.384;-4.386;2022-08-07T15:56:00;28.94;31.26
73547;SHT30;61807;48.384;-4.386;2022-08-07T15:58:47;28.82;30.32
73547;SHT30;61807;48.384;-4.386;2022-08-07T16:01:33;28.67;30.97
73547;SHT30;61807;48.384;-4.386;2022-08-07T16:04:02;28.65;31.35
73547;SHT30;61807;48.384;-4.386;2022-08-07T16:06:29;28.62;30.94
73547;SHT30;61807;48.384;-4.386;2022-08-07T16:09:00;28.55;30.91
73547;SHT30;61807;48.384;-4.386;2022-08-07T16:11:54;28.42;32.08
73547;SHT30;61807;48.384;-4.386;2022-08-07T16:23:11;27.97;31.94
73547;SHT30;61807;48.384;-4.386;2022-08-07T16:26:00;27.84;32.71
73547;SHT30;61807;48.384;-4.386;2022-08-07T16:28:30;27.77;32.89
73547;SHT30;61807;48.384;-4.386;2022-08-07T16:33:26;27.56;33.66
73547;SHT30;61807;48.384;-4.386;2022-08-07T16:38:54;27.53;33.99
73547;SHT30;61807;48.384;-4.386;2022-08-07T16:41:44;27.49;34.21
73547;SHT30;61807;48.384;-4.386;2022-08-07T16:47:31;27.23;34.36
73547;SHT30;61807;48.384;-4.386;2022-08-07T16:53:14;27.03;35.09
73547;SHT30;61807;48.384;-4.386;2022-08-07T16:56:02;26.94;35.32
73547;SHT30;61807;48.384;-4.386;2022-08-07T16:58:41;26.89;35.48
73547;SHT30;61807;48.384;-4.386;2022-08-07T17:03:54;26.74;35.95
73547;SHT30;61807;48.384;-4.386;2022-08-07T17:06:43;26.61;36.28
73547;SHT30;61807;48.384;-4.386;2022-08-07T17:09:27;26.45;36.28
73547;SHT30;61807;48.384;-4.386;2022-08-07T17:12:02;26.36;36.09
73547;SHT30;61807;48.384;-4.386;2022-08-07T17:17:05;26.09;36.56
73547;SHT30;61807;48.384;-4.386;2022-08-07T17:19:39;25.92;36.27
73547;SHT30;61807;48.384;-4.386;2022-08-07T17:22:15;25.80;36.50
73547;SHT30;61807;48.384;-4.386;2022-08-07T17:24:52;25.68;36.48
73547;SHT30;61807;48.384;-4.386;2022-08-07T17:30:11;25.41;36.93
73547;SHT30;61807;48.384;-4.386;2022-08-07T17:38:18;25.07;37.87
73547;SHT30;61807;48.384;-4.386;2022-08-07T17:43:38;24.86;38.07
73547;SHT30;61807;48.384;-4.386;2022-08-07T17:46:39;24.72;38.19
73547;SHT30;61807;48.384;-4.386;2022-08-07T17:52:36;24.42;38.65
73547;SHT30;61807;48.384;-4.386;2022-08-07T17:55:14;24.30;38.75
73547;SHT30;61807;48.384;-4.386;2022-08-07T17:58:03;24.18;38.85
73547;SHT30;61807;48.384;-4.386;2022-08-07T18:00:34;24.02;39.09
73547;SHT30;61807;48.384;-4.386;2022-08-07T18:03:14;23.91;39.08
73547;SHT30;61807;48.384;-4.386;2022-08-07T18:05:52;23.85;39.27
73547;SHT30;61807;48.384;-4.386;2022-08-07T18:08:24;23.74;39.50
73547;SHT30;61807;48.384;-4.386;2022-08-07T18:16:58;23.45;39.96
73547;SHT30;61807;48.384;-4.386;2022-08-07T18:21:38;23.20;40.07
73547;SHT30;61807;48.384;-4.386;2022-08-07T18:24:26;23.09;40.31
73547;SHT30;61807;48.384;-4.386;2022-08-07T18:35:25;22.76;41.00
73547;SHT30;61807;48.384;-4.386;2022-08-07T18:41:02;22.65;41.55
73547;SHT30;61807;48.384;-4.386;2022-08-07T18:46:20;22.48;41.95
73547;SHT30;61807;48.384;-4.386;2022-08-07T18:49:01;22.48;42.12
73547;SHT30;61807;48.384;-4.386;2022-08-07T18:56:49;22.29;42.74
73547;SHT30;61807;48.384;-4.386;2022-08-07T19:02:18;22.16;42.98
73547;SHT30;61807;48.384;-4.386;2022-08-07T19:05:00;22.10;43.19
73547;SHT30;61807;48.384;-4.386;2022-08-07T19:10:12;21.97;43.40
73547;SHT30;61807;48.384;-4.386;2022-08-07T19:12:52;21.90;43.49